LA MYTHIK - Club Tchimbé Raid le 04/02/2017

Recherche par Dossard : par Nom : par Club :

Place Dossard Nom Prenom Cat. Pl. Cat. Temps Club Sexe
1 331 RAMANICK Stelve V1 1 04:36:38 MAIRIE SPORTIVE M
2 323 COCHEREAU Oswald V1 2 04:43:26 TCHIMBE RAID M
3 124 BUREAU Pierre SE 1 04:50:45 Manikou M
4 62 PRADEL Michel SE 2 04:58:24 STADE LAMENTIN M
5 171 EOZENOU Jean-charles SE 3 05:03:25 Indiv M
6 59 PONCHATEAU Jean Pierre V1 3 05:09:44 Manikou/ TR/ STT/ TLT972 M
7 336 TRAMMA Fred V2 1 05:13:44 GOLDEN STAR M
8 179 THEZENAS Edouard V2 2 05:14:16 TANBOU RANDO M
9 103 SAUVAGNAC Xavier V2 3 05:18:36 tchad raid M
10 211 BIGOT THIERRY V2 4 05:21:09 M
11 269 LAMANDE Steve V2 5 05:25:10 Club Tchimbé Raid M
12 215 ROUBLIQUE ELYSABETH V1 1 05:26:49 CLUB TCHIMBERAID F
13 116 GEORGEON Laure SE 1 05:30:29 MAIRIE SPORTIVE F
14 22 BERNARD Patrick SE 4 05:31:32 Tchimbé raid M
15 364 DESCAS William V1 4 05:32:48 LES BAROUDEURS 972 M
16 113 HUREAU Loic SE 5 05:33:15 M
17 352 PLACIDOUX Louis V1 5 05:35:43 M
18 30 GAY Herve SE 6 05:37:33 Intersport / SAG/ Manikou M
19 125 LECURU Remi SE 7 05:37:46 M
20 345 CAYOL Eddy V1 6 05:38:05 ASC SARA M
21 255 BAH Alpha V1 7 05:38:50 FORCES ARMES ANTILLES M
22 128 COURDE Remi SE 8 05:41:17 Team Prefontaine M
23 391 MARIE ANGELIQUE Rodrigue Romuald V1 8 05:41:27 TCHIMBE/TLT972/MANIKOU M
24 102 PLANQUE Francois SE 9 05:41:57 M
25 188 CHIGNAGUET David SE 10 05:45:24 1980 M
26 252 ABADIE Alexis SE 11 05:45:50 CLUB TCHIMBERAID M
27 3 MORVAN Antoine SE 12 05:51:35 M
28 251 BILL François V1 9 05:51:53 LES BAROUDEURS M
29 207 GABUT FABIEN V1 10 05:52:58 MANIKOU M
30 158 VERRES Alexandre V2 6 05:53:27 samaritaine team trail M
31 381 MACABRE Camille V1 11 05:54:27 FR MORNE PITAULT M
32 86 TAVERNIER Yan V1 12 05:55:50 M
33 65 THORAVAL Laura SE 2 05:57:16 AMCF F
34 227 CLEDELIN HERVE V1 13 05:57:55 TCHIMBERAID LES BAROUDEURS M
35 210 ARCADE BAPTISTE SE 13 06:00:12 M
36 203 LAHELY MATHIEU V1 14 06:00:31 FJT Cycas M
37 219 SYLVESTRE FRANCK V1 15 06:00:32 KAWAN M
38 174 SERGENT Guillaume SE 14 06:01:29 M
39 234 DEROUET JEAN LUC V1 16 06:02:18 M
40 266 TERRIEN Samuel V1 17 06:02:54 FORCES ARMES ANTILLES M
41 199 MACKE Benjamin V1 18 06:03:36 M
42 176 CHABILLON Tom SE 15 06:03:57 Aiglon M
43 149 ARMET Thibaud V1 19 06:04:05 Manikou M
44 92 DELOGE Francois SE 16 06:05:13 M
45 20 PERFINI Maurice V1 20 06:05:50 tchimbe raid M
46 271 MERIOT Stephane V1 21 06:06:00 M
47 133 CHABANEIX Sebastien SE 17 06:06:12 Golden Star M
48 64 AGRICOLE Fred V2 7 06:06:34 TEAM LAM-TRAIL972 / MANIKOU M
49 244 CHATELUS YORICK SE 18 06:07:59 M
50 168 LEVEQUE Stanley SE 19 06:10:06 M
51 151 ARFI Laurent V1 22 06:10:20 TEAM SFE M
52 135 MICHERON Geraldine V1 2 06:11:25 manikou F
53 236 ABDOU SOUFFOU DJOUMA V1 23 06:11:48 M
54 218 DORIZON JERRY V1 24 06:11:54 MANIKOU M
55 274 ARMEDE Roddy V1 25 06:12:07 TCHIMBE RAID M
56 241 PUNU AUGUSTAVE SE 20 06:17:27 M
57 93 HONORE Thierry SE 21 06:18:14 ctr M
58 129 BONIFACIE Samy V1 26 06:19:17 Tchimbé raid M
59 154 FANCHONNA Luc V2 8 06:20:06 "wednesday friend's" M
60 308 RUBY Florence V1 3 06:20:39 F
61 45 GORVIEN Gilles V1 27 06:21:16 M
62 365 PAGNIEZ Samuel SE 22 06:21:46 M
63 321 DEFOI Luce V2 1 06:22:59 TCHIMBE RAID F
64 378 DEFOI Luc V2 9 06:24:27 M
65 43 MAYNE Geoffroy SE 23 06:24:36 GR|Training M
66 85 TESORIERE NICOLAS SE 24 06:24:41 MARINE Nationale M
67 32 DESCOURS Nicolas SE 25 06:26:38 M
68 72 RONDEAUX David SE 26 06:29:43 Team Babilon M
69 25 RONCO Manon SE 3 06:29:53 F
70 27 DE CHAVIGNY Pauline SE 4 06:29:53 F
71 152 CURFS Hubert V3 1 06:29:53 tchimberaid M
72 121 MESLIEN Olivier SE 27 06:30:22 M
73 204 RISAL RODOLPHE V1 28 06:30:52 M
74 155 PEPIN Sylvain V1 29 06:31:05 "wednesday friend's" M
75 349 ADOLPHE Claude V1 30 06:32:01 M
76 97 MORIO Frederic V1 31 06:33:00 M
77 178 LOSBAR Jose V2 10 06:33:22 TANBOU RANDO M
78 340 EMONIDES Marie Chantal V2 2 06:33:54 TCHIMBE RAID F
79 9 ALLAIN Claude V1 32 06:34:34 M
80 205 MAYAUD SYLVAIN V2 11 06:35:51 CGOSH M
81 385 RE Jean Luc SE 28 06:37:14 M
82 242 TODIKROMO ANTHONY SE 29 06:37:18 M
83 306 CROISY Patrick V2 12 06:37:22 M
84 107 FABREGUES Jerome V1 33 06:37:24 CLUB MANIKOU M
85 314 MONTOUT Christine V1 4 06:37:35 F
86 315 MONTOUT Eddy V1 34 06:37:36 M
87 305 COUTY Eric V1 35 06:37:36 M
88 253 BERTH Cedric SE 30 06:38:41 Drancy triathlon M
89 231 LACHI HACENE SE 31 06:38:49 M
90 213 TAYE JOSEPH V1 36 06:39:17 M
91 243 MONTEVILLE IDRISS SE 32 06:39:22 M
92 316 NERET Rony V1 37 06:39:36 MANIKOU/ TTCM M
93 250 LEROUX Yann SE 33 06:39:50 TCHMBERAID M
94 291 SCOUFLAIRE Helene SE 5 06:40:06 Gwada Run Green F
95 387 CLERO Patrick V2 13 06:40:44 M
96 312 SAGE Remi V1 38 06:40:50 Aiglon Du Lamentin M
97 60 BOCALY Melissa SE 6 06:41:32 F
98 105 MEDDOUR Salah V1 39 06:42:08 33 rima M
99 214 CYRILLE LEON VALERE V2 14 06:44:08 M
100 71 PRIAN Cecile V1 5 06:44:51 F
101 109 ACHARD Raphael V2 15 06:45:40 M
102 288 LEBAILLY Frederic SE 34 06:45:51 M
103 394 PERASTE Kelly V1 40 06:46:01 M
104 293 KIBIR Germain V2 16 06:47:42 chimbé raid M
105 206 HODOUL SYLVAIN V2 17 06:48:16 MANIKOU M
106 239 COURTOIS JEREMY SE 35 06:53:23 M
107 332 ADELAIDE Yannick SE 36 06:54:16 TCHIMBE RAID M
108 99 ZERHOUNI Djebrine V1 41 06:54:22 golden star M
109 18 MANIERE Florian SE 37 06:54:22 GOLDEN STAR M
110 143 TETU Jean-louis V1 42 06:54:22 Manikou M
111 44 LE TREQUESSER Yves V1 43 06:54:40 M
112 150 EUGENIA Jean Pierre V2 18 06:56:30 MAIRIE SPORTIVE M
113 202 GERMANY Frederic V1 44 06:58:04 Club Manikou/SPS TEAM M
114 91 MARIE-JOSEPH Christian SE 38 06:58:04 M
115 74 JULLIA Fabien SE 39 06:58:29 Team Babilon M
116 73 ROUSSIE Gaelle SE 7 06:58:41 F
117 31 LETTY Stephane V2 19 06:58:57 TCHIMBE RAID M
118 285 JEAN-MARIE-DESIREE Sylver V1 45 07:00:31 Clun Manikou M
119 122 FERREIRA Thierry V1 46 07:00:45 M
120 299 WELEPA STEEVE SE 40 07:01:17 33E RIMA M
121 63 SALVADOR Eddy V1 47 07:02:02 club manikou M
122 229 TESSIER LILIAN V1 48 07:02:08 M
123 28 BLANCHET Harold V1 49 07:02:16 M
124 268 SEONNET Stephane V1 50 07:03:12 M
125 193 GUSTAVE Gulliano SE 41 07:05:02 FR MORNE PITAULT M
126 263 MACROIX Jacques SE 42 07:05:28 FORCES ARMES ANTILLES M
127 127 GROS Jean-michel SE 43 07:06:22 TEAM D MICH M
128 304 SAINT-LOUIS Gilbert V2 20 07:06:50 M
129 160 ARRONDELL Olivier V2 21 07:07:11 MAIRIE SPORTIVE M
130 164 GUILLORIT Agnes V2 3 07:07:18 STT F
131 55 MIRANDE-NEY Aurelie V1 6 07:07:22 F
132 362 LAGUARIGUE Geraldine V1 7 07:08:10 F
133 111 DUGUET Ambroise Gabriel V2 22 07:08:36 manikou M
134 1 DRAKE-BROCKMAN Alan SE 44 07:09:15 M
135 33 DESCOURS Lise SE 8 07:10:44 F
136 270 BALLAND Marc V2 23 07:11:20 AMCF M
137 346 SAINT JUST Jean yves V1 51 07:12:02 M
138 110 BOYER Pierre V1 52 07:12:19 Kawann triathlon M
139 138 BLASCZYK Christophe V1 53 07:12:27 manikou M
140 61 BOCALY Leslie SE 9 07:12:47 F
141 358 PERIS Laurent V1 54 07:12:53 M
142 42 DURIEU Gilles V1 55 07:13:17 M
143 198 SURIC Jean-philippe V1 56 07:15:58 AMCF M
144 66 MARCHAIS Hubert V2 24 07:16:01 M
145 347 CHARPENTIER Florent SE 45 07:16:03 M
146 226 REINE RODRIGUE V2 25 07:16:26 TCHIMBERAID LES BAROUDEURS M
147 142 HARDOIN Simon V1 57 07:16:32 M
148 357 FLAMAND Pascal V2 26 07:16:46 val d europe athlétisme M
149 57 VALVERDE Philippe V1 58 07:17:44 M
150 390 FIBLEUIL YVON V2 27 07:18:19 FSE M
151 283 RETORY Denis V2 28 07:18:21 tchiembe raid M
152 166 DIVAL Vincent V1 59 07:18:46 M
153 177 FRESNEAU Stephane V1 60 07:18:55 CSLG Martinique M
154 132 GASQUEZ Richard V2 29 07:20:44 The Crew M
155 8 LOCURATOLO Alexandre SE 46 07:20:56 M
156 136 GEKIERE Cyril V1 61 07:20:57 manikou M
157 393 JEANNOT LAETITIA V1 8 07:22:37 33E RIMA F
158 363 GUILLOT Nicolas SE 47 07:22:59 Team Popcorn M
159 112 DUGUET Benoit Andre V2 30 07:24:09 manikou M
160 191 MEHAL Lionel V1 62 07:24:21 FR Morne Pitault M
161 348 GUICHARD Pascal V3 2 07:24:30 MANIKOU M
162 397 BAUDIN Lucien V2 31 07:24:35 M
163 303 MADELENAT Jean-charles V1 63 07:25:44 Aiglon du Lamentin M
164 187 PARIS David V1 64 07:25:47 Manikou M
165 51 BELFIT Ludovic SE 48 07:26:03 Kawann Triathlon M
166 77 COUVREUR Vincent SE 49 07:26:21 M
167 117 MINAR Jean-max V1 65 07:28:51 M
168 170 MINAR Eric V1 66 07:28:51 Passrunning M
169 322 BESSEY Pascal V1 67 07:29:14 Intergénération Runners M
170 118 LERY Eddy V1 68 07:33:28 Tchimbe raid M
171 284 COSTE Guillem V1 69 07:33:29 M
172 140 COSTE Helene SE 10 07:33:30 F
173 190 SCHOLASTIQUE Jean Christophe SE 50 07:33:30 M
174 344 CABARIUS Mario V1 70 07:33:46 ASC SARA M
175 36 REYNAUD Tommy SE 51 07:33:51 M
176 209 NAGOU LIONEL V1 71 07:34:13 CLUB TCIHMBERAID SAM HORIZON M
177 371 DACY Steeve V1 72 07:34:20 KAWAN TRIATLON M
178 88 TANGUY Sylvain SE 52 07:37:18 M
179 87 CAVALADE Quentin V1 73 07:37:20 M
180 196 KERMOISON Alex V2 32 07:38:58 AMCF M
181 220 JEREMIE TONY SE 53 07:40:40 SAM HORIZON M
182 313 TOUCHE Benoit V5 1 07:41:10 1963 M
183 82 LABAT MATHIEU V1 74 07:41:42 MARINE Nationale M
184 70 HARDOROCK Remi SE 54 07:41:42 M
185 396 GARCIA Rafael SE 55 07:41:42 M
186 4 PABOT Sophie SE 11 07:41:42 URBAN RUNNERS BORDEAUX F
187 320 BOUVRY Isabelle V2 4 07:41:42 19/12/2016 F
188 169 ERIDAN Patricia V1 9 07:41:42 Samaritaine team trail F
189 120 CROULARD Peggy V1 10 07:42:42 MAIRIE SPORTIVE F
190 310 BERNARD Freddy V1 75 07:42:42 M
191 290 BOURDIN Damien SE 56 07:42:58 M
192 257 BOURGAIN Sébastien V1 76 07:43:47 FORCES ARMES ANTILLES M
193 296 DORBAIRE FABRICE V2 33 07:44:01 33E RIMA M
194 233 TONDEUR GAETAN SE 57 07:46:06 M
195 247 POMPANON CLEMENT SE 58 07:47:54 M
196 292 LAHOUL Cynthia V1 11 07:48:55 Manikou - TLT972 F
197 183 BERTE David V1 77 07:49:25 SAM HORIZON 2000 M
198 185 FILOPON Laure V1 12 07:49:25 TCHIMBE RAID F
199 289 TAPON Frederic V1 78 07:49:59 assaut M
200 13 PISTOL Mimi SE 12 07:50:30 F
201 89 CAMUS Nicolas SE 59 07:50:30 TEAM INTERSPORT M
202 400 ALLAIN Regis V1 79 07:50:30 M
203 104 PIMPY Jean-albert V2 34 07:50:42 AMCF M
204 339 CHRISTIAENS Hemmerick V1 80 07:52:39 TCHIMBE RAID M
205 15 FILIN Jasmine SE 13 07:54:02 F
206 96 BERNARD Yoann SE 60 07:58:04 Squale Club M
207 334 LASSOURCE Sébastien SE 61 07:58:26 07/12/0205 M
208 153 CAGE Jocelyn V2 35 07:58:27 M
209 245 TOSELLI JORIS SE 62 07:59:38 M
210 260 HUCHET Gael V1 81 08:00:31 FORCES ARMES ANTILLES M
211 399 DOWLING CARTER Laurent V2 36 08:00:32 M
212 258 FACHE Romuald SE 63 08:00:37 FORCES ARMES ANTILLES M
213 302 GRELET Veronique V1 13 08:00:37 F
214 330 MONVILLE LETU Manuel V2 37 08:00:38 TCHIMBE RAID/ASRFO972 M
215 228 FABRICIUS PIERRE V3 3 08:00:49 TCHIMBERAID M
216 201 SAINTENOY Jackie V1 14 08:00:54 manikou F
217 165 FERCOT Mickael SE 64 08:00:56 M
218 359 FOURNEAU Jean-marie V1 82 08:02:05 Squale Club M
219 392 DE DUCLA HUBERT V1 83 08:02:11 CYIM M
220 84 PEDROT GAETAN SE 65 08:02:27 MARINE Nationale M
221 342 FERRER Fréderic V1 84 08:03:09 ASC SARA M
222 265 SAVARD Logan SE 66 08:04:16 FORCES ARMES ANTILLES M
223 335 PELTI Valérie V1 15 08:04:20 TCHIMBE RAID F
224 377 CALCUL ROMAIN Véronique V2 5 08:04:37 MANIKOU F
225 240 CORANI CEDRIC SE 67 08:06:04 M
226 181 HELENE Josiane V2 6 08:06:36 club tchimbe F
227 40 LANSADE Alexandre SE 68 08:07:23 SAM HORIZON 2000 M
228 175 DEGRAIN Marie_edmee V2 7 08:07:25 pass running F
229 195 MARIE LUCE Pierre V1 85 08:09:02 Amcf M
230 287 SERENI Ghislaine V3 1 08:09:40 A.M.C.F. F
231 328 LEBIELLE Malory SE 14 08:09:59 TCHIMBE RAID/ASRFO972 F
232 12 BERNE Thomas SE 69 08:10:12 TEAM TRAIL VENTOSE M
233 307 MOSSIERE Jacques-olivivier V2 38 08:11:44 M
234 343 BELROSE Gervais V3 4 08:13:03 ASC SARA M
235 212 RAPHA DANNY V3 2 08:13:59 MAIRIE SPORTIVE F
236 81 GAZET Nathalie V1 16 08:13:59 MARINE Nationale F
237 264 SALOMON Nicolas V2 39 08:14:57 FORCES ARMES ANTILLES M
238 83 MENENDEZ François V2 40 08:15:30 MARINE Nationale M
239 325 COLONNETTE FILIN Clarisse SE 15 08:16:32 Tchimbé raid/Sam Horizon F
240 324 GOSSE Valérie V1 17 08:16:32 TCHIMBE RAID F
241 395 JOSEPH SYLVESTRE Johanne SE 16 08:18:20 LES BAROUDEURS F
242 34 DREUX Anne Gaelle SE 17 08:19:53 F
243 35 DREUX Fabrice V1 86 08:19:53 M
244 54 RACINE Guillaume SE 70 08:20:57 M
245 295 ORLANDINI Philippe V1 87 08:20:57 M
246 38 DELAGE Sophie V1 18 08:21:44 CGOSH F
247 375 ADELON TROMPETTE Marie Noëlle V2 8 08:21:45 MANIKOU / TLT972 F
248 294 REMY-ZEPHIR Yohan SE 71 08:21:46 M
249 318 ROTIN Youry SE 72 08:22:32 TCHIMBE RAID M
250 21 EDMOND Sandra V1 19 08:24:45 F
251 49 SALAUN Olivier SE 73 08:28:52 M
252 173 CROQ Aurelien SE 74 08:30:42 Team 20-1 M
253 172 KERGUELEN Fanch SE 75 08:30:42 Team 20-1 M
254 353 MARANT Lucie SE 18 08:30:46 F
255 354 BENZONI Laure SE 19 08:30:46 F
256 222 SONEL EDOUARD TEDDY V1 88 08:32:26 CLUB TCHIMBERAID M
257 401 ROMAGNE Raymond V2 41 08:33:11 M
258 278 RAFFIN Herve V1 89 08:33:18 TEAM LAM-TRAIL 972/ TCHIMBERAID M
259 78 LOUISE Fred V2 42 08:33:19 TCHIMBE RAID M
260 186 BILLEREY Beverlie SE 20 08:33:50 manikou F
261 232 LAMARQUE YANN SE 76 08:35:27 M
262 167 CHANTRAIT Cyril V2 43 08:35:35 Tchimbé raid M
263 237 METTETAL DAVID SE 77 08:36:52 M
264 159 ADELAIDE Daniel V3 5 08:38:07 MANIKOU M
265 388 GUANNEL Gilles V1 90 08:43:12 MAIRIE SPORTIVE M
266 249 FONTAINE FRANTZ V2 44 08:43:42 TCHIMBERAID M
267 248 GALLAND JEAN-CLAUDE V2 45 08:45:49 M
268 355 FAUCHIER Madeleine SE 21 08:46:13 F
269 327 LAURIER Gaby V1 91 08:46:15 TCHIMBE RAID/ASRFO972 M
270 147 JORDAN Remy V1 92 08:46:56 Pass run M
271 273 DEWULF Herve V1 93 08:47:43 TCHIMBE RAID M
272 361 SYLVESTRE Didier V1 94 08:47:59 SAM HORIZON M
273 360 JEAN BAPTISTE DIALLO Judith V1 20 08:48:00 sam horizon F
274 139 DEMAY Francis V2 46 08:48:02 M
275 275 GOUSMAN Chrystel V2 9 08:51:04 MANIKOU F
276 56 COUTE Marie-jose V2 10 08:51:04 MANIKOU F
277 145 LERIDER Laure V1 21 08:51:39 STT F
278 350 ELIETTE Christian V3 6 08:53:39 manikou M
279 311 LANCLAS Marielle V1 22 08:53:40 clubmanikouTLT972/AMCF F
280 52 CASATI Patrick V2 47 08:55:03 MANIKOU M
281 383 MALINUR Christophe V3 7 08:55:03 MANIKOU M
282 369 HILLION Claude V2 48 08:59:21 TCHIMBE RAID M
283 398 TOKOTUU Lutoviko V1 95 09:00:34 M
284 319 LOUIS MARIE Marc V1 96 09:05:23 TCHIMBE RAID M
285 2 HONORE Yann V1 97 09:05:23 Tchimbé Raid M
286 256 BOUDIN Jérôme V1 98 09:06:52 FORCES ARMES ANTILLES M
287 95 KARGOL Michael V1 99 09:07:03 Squale Club M
288 53 TOUCHAIN Erwan SE 78 09:13:39 Tchimbéraid M
289 14 PISTOL Olivier V1 23 09:18:17 F
290 261 KREGIELSKI Vincent V1 100 09:18:17 FORCES ARMES ANTILLES M
291 48 JOLLY Matthieu V1 101 09:22:12 M
292 286 ERICHER Marilyne V1 24 09:23:20 F
293 90 MAHE Francois-xavier V2 49 09:23:53 M
294 300 MERCIRIS CEDRIC SE 79 09:24:34 33E RIMA M
295 194 LEZIN Thierry V2 50 09:26:54 CLUB MANIKOU M
296 94 GOLD-DALG MALINUR Catherine V2 11 09:33:34 clud manikou F
297 267 VIGOUROUX Olivier V2 51 09:33:38 FORCES ARMES ANTILLES M
298 379 FELICIA Rodrigue SE 80 09:38:45 M
299 337 DEMONIERE Edgard V3 8 09:38:45 ZENITH M
300 298 BORDIN PHILIPPE V1 102 09:40:35 33E RIMA M
301 297 GAUTIER VINCENT V2 52 09:41:42 33E RIMA M
302 281 JOLY Sebastien SE 81 09:44:11 M
303 137 BALANCOURT Philippe V1 103 09:44:11 TEAM INTERSPORT M
304 230 HAUBREUX SEBASTIEN SE 82 09:47:47 M
305 156 CINTRAT Jean-sebastien V1 104 09:48:47 M
306 368 DESIRE Daniele V2 12 09:52:04 F
307 141 HELOISE Claude V1 105 09:52:07 M
308 123 PIGET Philippe V3 9 10:05:07 1954 M
309 317 DANJOU Myriam SE 22 10:23:47 F
310 115 LOUISY Loic SE 83 10:24:27 AMCF M
311 144 BOULAIN Ludovic V1 106 10:26:06 M